createdAt,value
2022-07-29T00:01:44.069Z,97530.05
2022-07-29T00:04:13.014Z,97529.41
2022-07-29T00:06:42.419Z,97531.36
2022-07-29T00:09:10.643Z,97531.23
2022-07-29T00:11:38.776Z,97527.77
2022-07-29T00:14:06.854Z,97521.55
2022-07-29T00:16:35.465Z,97517.82
2022-07-29T00:19:04.515Z,97517.91
2022-07-29T00:21:32.699Z,97518.48
2022-07-29T00:24:00.794Z,97519.20
2022-07-29T00:26:32.881Z,97523.52
2022-07-29T00:29:32.642Z,97521.08
2022-07-29T00:31:50.701Z,97518.36
2022-07-29T00:34:37.585Z,97517.53
2022-07-29T00:37:05.720Z,97509.66
2022-07-29T00:39:36.311Z,97506.57
2022-07-29T00:42:05.959Z,97504.76
2022-07-29T00:44:38.887Z,97502.88
2022-07-29T00:47:08.212Z,97504.91
2022-07-29T00:49:36.772Z,97504.77
2022-07-29T00:52:06.276Z,97502.89
2022-07-29T00:54:35.393Z,97504.10
2022-07-29T00:57:09.125Z,97499.48
2022-07-29T00:59:37.312Z,97498.90
2022-07-29T01:02:05.688Z,97501.84
2022-07-29T01:04:34.313Z,97503.99
2022-07-29T01:07:03.787Z,97499.10
2022-07-29T01:09:45.745Z,97499.14
2022-07-29T01:12:19.820Z,97498.02
2022-07-29T01:14:49.966Z,97498.52
2022-07-29T01:17:38.002Z,97493.06
2022-07-29T01:20:14.894Z,97494.11
2022-07-29T01:23:03.178Z,97490.89
2022-07-29T01:25:53.190Z,97488.14
2022-07-29T01:28:36.595Z,97485.64
2022-07-29T01:31:07.477Z,97488.60
2022-07-29T01:33:50.585Z,97490.69
2022-07-29T01:36:31.041Z,97491.42
2022-07-29T01:39:36.263Z,97493.94
2022-07-29T01:42:13.989Z,97491.67
2022-07-29T01:45:07.437Z,97494.93
2022-07-29T01:47:57.817Z,97492.04
2022-07-29T01:50:45.606Z,97489.81
2022-07-29T01:53:22.661Z,97487.96
2022-07-29T01:55:52.084Z,97497.55
2022-07-29T01:58:21.812Z,97495.27
2022-07-29T02:00:51.598Z,97492.08
2022-07-29T02:03:20.110Z,97484.95
2022-07-29T02:05:51.410Z,97487.72
2022-07-29T02:08:20.838Z,97488.11
2022-07-29T02:10:49.950Z,97489.98
2022-07-29T02:13:18.630Z,97490.71
2022-07-29T02:15:47.907Z,97491.35
2022-07-29T02:18:18.933Z,97486.13
2022-07-29T02:20:49.685Z,97482.17
2022-07-29T02:23:21.746Z,97481.17
2022-07-29T02:25:52.867Z,97478.16
2022-07-29T02:28:23.907Z,97480.30
2022-07-29T02:30:53.757Z,97477.06
2022-07-29T02:33:25.124Z,97475.98
2022-07-29T02:35:54.617Z,97481.79
2022-07-29T02:38:43.498Z,97478.64
2022-07-29T02:41:16.733Z,97477.61
2022-07-29T02:43:48.009Z,97475.35
2022-07-29T02:46:28.966Z,97477.31
2022-07-29T02:49:05.377Z,97477.70
2022-07-29T02:51:45.177Z,97475.91
2022-07-29T02:54:30.750Z,97480.15
2022-07-29T02:57:05.088Z,97477.19
2022-07-29T02:59:37.855Z,97475.48
2022-07-29T03:02:07.124Z,97476.04
2022-07-29T03:04:36.522Z,97473.48
2022-07-29T03:07:06.295Z,97472.08
2022-07-29T03:09:35.160Z,97472.83
2022-07-29T03:12:05.073Z,97467.19
2022-07-29T03:14:34.533Z,97473.52
2022-07-29T03:17:03.173Z,97471.73
2022-07-29T03:19:32.380Z,97472.98
2022-07-29T03:22:00.942Z,97473.73
2022-07-29T03:24:35.262Z,97473.23
2022-07-29T03:27:04.825Z,97476.76
2022-07-29T03:29:34.565Z,97475.36
2022-07-29T03:32:08.043Z,97472.98
2022-07-29T03:34:38.584Z,97475.37
2022-07-29T03:37:07.810Z,97478.30
2022-07-29T03:39:38.565Z,97477.55
2022-07-29T03:42:09.995Z,97479.85
2022-07-29T03:44:40.124Z,97483.41
2022-07-29T03:47:10.745Z,97482.79
2022-07-29T03:49:41.381Z,97485.27
2022-07-29T03:52:10.073Z,97484.77
2022-07-29T03:54:38.369Z,97489.84
2022-07-29T03:57:08.425Z,97493.66
2022-07-29T03:59:38.981Z,97499.60
2022-07-29T04:02:12.057Z,97500.37
2022-07-29T04:04:40.691Z,97501.58
2022-07-29T04:07:13.243Z,97500.21
2022-07-29T04:09:41.632Z,97504.15
2022-07-29T04:12:10.316Z,97500.20
2022-07-29T04:14:38.432Z,97502.98
2022-07-29T04:17:06.789Z,97501.20
2022-07-29T04:19:35.094Z,97501.30
2022-07-29T04:22:04.133Z,97501.23
2022-07-29T04:24:32.033Z,97498.91
2022-07-29T04:27:00.084Z,97502.06
2022-07-29T04:29:28.194Z,97503.96
2022-07-29T04:31:56.250Z,97499.13
2022-07-29T04:34:28.295Z,97499.77
2022-07-29T04:36:57.001Z,97500.20
2022-07-29T04:39:25.766Z,97500.91
2022-07-29T04:41:57.806Z,97499.69
2022-07-29T04:44:28.903Z,97492.28
2022-07-29T04:46:58.414Z,97488.29
2022-07-29T04:49:27.133Z,97486.96
2022-07-29T04:51:55.407Z,97485.19
2022-07-29T04:54:23.714Z,97487.19
2022-07-29T04:56:52.865Z,97487.81
2022-07-29T04:59:20.955Z,97493.82
2022-07-29T05:01:49.016Z,97498.52
2022-07-29T05:04:17.672Z,97501.21
2022-07-29T05:06:45.866Z,97502.93
2022-07-29T05:09:14.091Z,97500.16
2022-07-29T05:11:42.095Z,97497.79
2022-07-29T05:14:10.150Z,97499.73
2022-07-29T05:16:38.120Z,97497.05
2022-07-29T05:19:09.730Z,97501.08
2022-07-29T05:21:41.979Z,97503.63
2022-07-29T05:24:10.042Z,97502.00
2022-07-29T05:26:38.114Z,97506.09
2022-07-29T05:29:06.446Z,97506.55
2022-07-29T05:31:34.748Z,97509.94
2022-07-29T05:34:02.857Z,97514.75
2022-07-29T05:36:30.979Z,97516.01
2022-07-29T05:38:59.121Z,97516.88
2022-07-29T05:41:27.366Z,97519.79
2022-07-29T05:43:55.602Z,97516.81
2022-07-29T05:46:23.744Z,97516.81
2022-07-29T05:48:52.134Z,97519.13
2022-07-29T05:51:20.172Z,97514.02
2022-07-29T05:53:48.295Z,97513.55
2022-07-29T05:56:16.981Z,97512.70
2022-07-29T05:58:45.009Z,97511.11
2022-07-29T06:01:13.305Z,97512.42
2022-07-29T06:03:42.564Z,97511.70
2022-07-29T06:06:11.162Z,97511.38
2022-07-29T06:08:39.827Z,97514.99
2022-07-29T06:11:09.569Z,97513.80
2022-07-29T06:13:37.997Z,97515.20
2022-07-29T06:16:06.234Z,97515.06
2022-07-29T06:18:34.615Z,97516.60
2022-07-29T06:21:02.825Z,97519.23
2022-07-29T06:23:30.777Z,97525.64
2022-07-29T06:25:59.595Z,97526.21
2022-07-29T06:28:28.358Z,97524.74
2022-07-29T06:30:56.648Z,97521.18
2022-07-29T06:33:24.931Z,97520.42
2022-07-29T06:35:53.579Z,97521.86
2022-07-29T06:38:31.107Z,97520.37
2022-07-29T06:41:03.803Z,97516.43
2022-07-29T06:43:52.477Z,97513.16
2022-07-29T06:46:24.121Z,97511.33
2022-07-29T06:48:53.570Z,97509.14
2022-07-29T06:51:23.840Z,97504.77
2022-07-29T06:54:00.607Z,97509.97
2022-07-29T06:56:43.004Z,97511.18
2022-07-29T06:59:12.643Z,97504.94
2022-07-29T07:01:44.443Z,97501.48
2022-07-29T07:04:13.461Z,97501.48
2022-07-29T07:06:41.891Z,97498.81
2022-07-29T07:09:10.026Z,97500.12
2022-07-29T07:11:38.254Z,97498.27
2022-07-29T07:14:06.350Z,97495.42
2022-07-29T07:16:34.508Z,97493.23
2022-07-29T07:19:02.721Z,97493.45
2022-07-29T07:21:31.438Z,97490.30
2022-07-29T07:24:00.499Z,97484.31
2022-07-29T07:26:29.634Z,97479.96
2022-07-29T07:28:58.281Z,97477.13
2022-07-29T07:31:26.202Z,97475.14
2022-07-29T07:33:54.724Z,97474.02
2022-07-29T07:36:23.318Z,97474.27
2022-07-29T07:38:51.461Z,97472.02
2022-07-29T07:41:19.521Z,97472.84
2022-07-29T07:43:48.251Z,97472.17
2022-07-29T07:46:16.661Z,97473.48
2022-07-29T07:48:45.599Z,97471.58
2022-07-29T07:51:14.030Z,97470.10
2022-07-29T07:53:42.435Z,97467.53
2022-07-29T07:56:12.867Z,97460.48
2022-07-29T07:58:41.782Z,97464.86
2022-07-29T08:01:10.269Z,97469.68
2022-07-29T08:03:39.075Z,97468.75
2022-07-29T08:06:07.659Z,97464.74
2022-07-29T08:08:36.449Z,97464.12
2022-07-29T08:11:09.198Z,97466.19
2022-07-29T08:13:39.392Z,97462.44
2022-07-29T08:16:13.245Z,97465.19
2022-07-29T08:18:42.865Z,97469.52
2022-07-29T08:21:11.111Z,97469.33
2022-07-29T08:23:59.699Z,97468.06
2022-07-29T08:26:30.030Z,97469.14
2022-07-29T08:28:58.032Z,97470.26
2022-07-29T08:31:26.155Z,97467.25
2022-07-29T08:33:54.172Z,97463.02
2022-07-29T08:36:22.333Z,97465.55
2022-07-29T08:38:50.758Z,97464.95
2022-07-29T08:41:22.827Z,97459.98
2022-07-29T08:43:53.031Z,97462.83
2022-07-29T08:46:22.098Z,97460.55
2022-07-29T08:48:50.653Z,97460.10
2022-07-29T08:51:20.944Z,97458.21
2022-07-29T08:53:50.773Z,97456.00
2022-07-29T08:56:20.544Z,97456.02
2022-07-29T08:58:51.965Z,97454.15
2022-07-29T09:01:35.533Z,97453.34
2022-07-29T09:04:07.150Z,97453.45
2022-07-29T09:06:40.481Z,97454.04
2022-07-29T09:09:10.140Z,97453.19
2022-07-29T09:11:38.378Z,97450.70
2022-07-29T09:14:06.914Z,97450.52
2022-07-29T09:16:53.563Z,97448.95
2022-07-29T09:19:23.700Z,97446.54
2022-07-29T09:22:03.103Z,97442.49
2022-07-29T09:24:42.516Z,97441.88
2022-07-29T09:27:24.314Z,97434.94
2022-07-29T09:30:01.496Z,97429.44
2022-07-29T09:32:30.703Z,97430.44
2022-07-29T09:35:19.449Z,97428.13
2022-07-29T09:37:48.706Z,97428.93
2022-07-29T09:40:24.205Z,97427.73
2022-07-29T09:42:54.266Z,97427.43
2022-07-29T09:45:34.782Z,97426.55
2022-07-29T09:48:18.365Z,97427.35
2022-07-29T09:50:49.501Z,97425.94
2022-07-29T09:53:38.503Z,97422.81
2022-07-29T09:56:07.310Z,97418.48
2022-07-29T09:58:35.900Z,97414.06
2022-07-29T10:01:05.070Z,97414.08
2022-07-29T10:03:33.488Z,97401.65
2022-07-29T10:06:05.866Z,97401.88
2022-07-29T10:08:34.020Z,97400.02
2022-07-29T10:11:14.995Z,97396.33
2022-07-29T10:13:45.333Z,97391.71
2022-07-29T10:16:15.011Z,97384.29
2022-07-29T10:18:44.834Z,97382.71
2022-07-29T10:21:22.560Z,97378.65
2022-07-29T10:24:02.478Z,97380.30
2022-07-29T10:26:31.510Z,97377.95
2022-07-29T10:28:59.805Z,97377.80
2022-07-29T10:31:36.489Z,97376.73
2022-07-29T10:34:57.488Z,97369.09
2022-07-29T10:37:45.960Z,97369.19
2022-07-29T10:40:57.290Z,97365.16
2022-07-29T10:43:29.943Z,97356.90
2022-07-29T10:46:01.660Z,97351.80
2022-07-29T10:48:30.349Z,97348.73
2022-07-29T10:51:04.620Z,97348.37
2022-07-29T10:53:54.209Z,97344.99
2022-07-29T10:56:35.913Z,97344.27
2022-07-29T10:59:22.755Z,97347.71
2022-07-29T11:01:54.275Z,97350.92
2022-07-29T11:04:45.408Z,97358.80
2022-07-29T11:07:17.497Z,97365.90
2022-07-29T11:10:15.138Z,97372.85
2022-07-29T11:12:44.506Z,97368.17
2022-07-29T11:15:18.438Z,97362.13
2022-07-29T11:17:55.244Z,97357.87
2022-07-29T11:20:34.749Z,97352.93
2022-07-29T11:23:33.365Z,97351.57
2022-07-29T11:26:18.977Z,97358.24
2022-07-29T11:28:55.659Z,97360.81
2022-07-29T11:31:42.458Z,97365.69
2022-07-29T11:34:28.006Z,97372.28
2022-07-29T11:40:08.183Z,97369.13
2022-07-29T11:42:36.857Z,97364.52
2022-07-29T11:45:44.412Z,97361.64
2022-07-29T11:48:27.911Z,97360.52
2022-07-29T11:50:55.101Z,97357.88
2022-07-29T11:53:24.196Z,97351.70
2022-07-29T11:55:58.248Z,97345.02
2022-07-29T11:58:28.480Z,97344.52
2022-07-29T12:00:57.845Z,97342.06
2022-07-29T12:03:35.249Z,97343.77
2022-07-29T12:06:15.134Z,97343.54
2022-07-29T12:07:01.663Z,97372.04
2022-07-29T12:08:44.888Z,97346.48
2022-07-29T12:11:20.388Z,97347.24
2022-07-29T12:13:50.434Z,97346.29
2022-07-29T12:16:29.209Z,97345.42
2022-07-29T12:19:02.893Z,97348.32
2022-07-29T12:21:53.959Z,97348.75
2022-07-29T12:24:26.843Z,97351.73
2022-07-29T12:26:58.161Z,97354.95
2022-07-29T12:29:33.933Z,97351.34
2022-07-29T12:32:14.568Z,97347.50
2022-07-29T12:34:48.260Z,97336.09
2022-07-29T12:37:16.705Z,97332.05
2022-07-29T12:39:45.065Z,97331.06
2022-07-29T12:42:18.490Z,97326.09
2022-07-29T12:44:49.358Z,97320.23
2022-07-29T12:47:19.334Z,97316.94
2022-07-29T12:49:49.100Z,97310.98
2022-07-29T12:52:32.860Z,97303.55
2022-07-29T12:55:03.027Z,97295.73
2022-07-29T12:57:33.071Z,97293.58
2022-07-29T13:00:05.711Z,97293.00
2022-07-29T13:02:34.129Z,97288.52
2022-07-29T13:05:02.654Z,97285.40
2022-07-29T13:07:54.244Z,97291.22
2022-07-29T13:10:24.135Z,97299.17
2022-07-29T13:13:06.420Z,97300.72
2022-07-29T13:15:35.190Z,97302.26
2022-07-29T13:18:04.912Z,97304.98
2022-07-29T13:20:33.534Z,97304.35
2022-07-29T13:23:01.977Z,97305.08
2022-07-29T13:25:33.032Z,97300.70
2022-07-29T13:28:01.650Z,97302.95
2022-07-29T13:30:30.178Z,97300.85
2022-07-29T13:32:58.350Z,97306.80
2022-07-29T13:35:33.452Z,97309.20
2022-07-29T13:38:08.425Z,97311.80
2022-07-29T13:40:36.454Z,97312.90
2022-07-29T13:43:04.462Z,97318.80
2022-07-29T13:45:32.418Z,97323.69
2022-07-29T13:48:00.430Z,97325.38
2022-07-29T13:50:34.542Z,97324.14
2022-07-29T13:53:02.640Z,97327.73
2022-07-29T13:55:31.028Z,97328.39
2022-07-29T13:57:59.091Z,97331.77
2022-07-29T14:00:27.321Z,97331.48
2022-07-29T14:02:55.514Z,97333.21
2022-07-29T14:05:23.662Z,97335.44
2022-07-29T14:07:51.925Z,97340.73
2022-07-29T14:10:20.350Z,97346.73
2022-07-29T14:12:48.466Z,97350.21
2022-07-29T14:15:16.539Z,97357.27
2022-07-29T14:17:44.617Z,97355.35
2022-07-29T14:20:12.775Z,97356.13
2022-07-29T14:22:42.698Z,97354.91
2022-07-29T14:25:15.147Z,97348.67
2022-07-29T14:27:44.837Z,97345.27
2022-07-29T14:30:13.416Z,97342.45
2022-07-29T14:32:41.758Z,97344.79
2022-07-29T14:35:09.933Z,97350.34
2022-07-29T14:37:40.411Z,97348.36
2022-07-29T14:40:10.818Z,97344.69
2022-07-29T14:42:40.095Z,97337.19
2022-07-29T14:45:10.321Z,97338.40
2022-07-29T14:47:39.790Z,97332.76
2022-07-29T14:50:08.994Z,97332.77
2022-07-29T14:52:37.296Z,97333.35
2022-07-29T14:55:06.125Z,97334.02
2022-07-29T14:57:50.943Z,97330.58
2022-07-29T15:00:19.402Z,97328.95
2022-07-29T15:03:02.786Z,97332.76
2022-07-29T15:05:32.356Z,97332.06
2022-07-29T15:08:00.817Z,97328.21
2022-07-29T15:10:29.805Z,97325.02
2022-07-29T15:12:58.445Z,97329.79
2022-07-29T15:15:27.079Z,97332.09
2022-07-29T15:17:55.188Z,97333.46
2022-07-29T15:20:26.311Z,97339.00
2022-07-29T15:22:56.571Z,97339.40
2022-07-29T15:25:28.354Z,97332.43
2022-07-29T15:28:01.253Z,97323.79
2022-07-29T15:30:33.410Z,97314.59
2022-07-29T15:33:04.208Z,97300.77
2022-07-29T15:35:32.771Z,97299.56
2022-07-29T15:38:01.065Z,97296.02
2022-07-29T15:40:29.644Z,97294.11
2022-07-29T15:42:58.609Z,97288.98
2022-07-29T15:45:26.812Z,97286.45
2022-07-29T15:48:00.673Z,97291.09
2022-07-29T15:50:28.757Z,97287.04
2022-07-29T15:52:57.054Z,97287.07
2022-07-29T15:55:25.518Z,97287.66
2022-07-29T15:57:57.200Z,97287.77
2022-07-29T16:00:28.558Z,97283.96
2022-07-29T16:02:57.234Z,97280.19
2022-07-29T16:05:25.592Z,97282.59
2022-07-29T16:07:53.644Z,97280.60
2022-07-29T16:10:21.649Z,97277.98
2022-07-29T16:12:49.807Z,97279.75
2022-07-29T16:15:17.881Z,97283.36
2022-07-29T16:17:45.969Z,97284.46
2022-07-29T16:20:14.152Z,97290.44
2022-07-29T16:22:42.655Z,97291.23
2022-07-29T16:25:10.698Z,97288.95
2022-07-29T16:27:38.956Z,97288.55
2022-07-29T16:30:09.782Z,97293.05
2022-07-29T16:32:38.393Z,97296.67
2022-07-29T16:35:07.877Z,97300.19
2022-07-29T16:37:37.255Z,97305.41
2022-07-29T16:40:07.244Z,97304.85
2022-07-29T16:42:47.901Z,97313.98
2022-07-29T16:45:17.986Z,97319.65
2022-07-29T16:47:48.620Z,97329.14
2022-07-29T16:50:18.129Z,97341.08
2022-07-29T16:52:46.199Z,97346.79
2022-07-29T16:55:14.374Z,97354.95
2022-07-29T16:57:43.837Z,97360.63
2022-07-29T17:00:13.612Z,97364.73
2022-07-29T17:02:41.761Z,97366.94
2022-07-29T17:05:10.880Z,97372.02
2022-07-29T17:07:40.356Z,97393.61
2022-07-29T17:10:10.023Z,97409.92
2022-07-29T17:12:40.069Z,97403.71
2022-07-29T17:15:10.820Z,97406.12
2022-07-29T17:17:55.081Z,97408.90
2022-07-29T17:20:27.047Z,97414.38
2022-07-29T17:22:55.536Z,97411.63
2022-07-29T17:25:24.421Z,97402.73
2022-07-29T17:27:56.390Z,97394.44
2022-07-29T17:30:27.561Z,97391.63
2022-07-29T17:32:55.958Z,97392.53
2022-07-29T17:35:56.136Z,97396.59
2022-07-29T17:38:24.257Z,97393.17
2022-07-29T17:40:52.430Z,97395.25
2022-07-29T17:43:20.482Z,97385.11
2022-07-29T17:45:48.857Z,97384.35
2022-07-29T17:48:19.766Z,97385.33
2022-07-29T17:50:48.825Z,97383.70
2022-07-29T17:53:17.272Z,97381.20
2022-07-29T17:55:46.576Z,97378.67
2022-07-29T17:58:15.366Z,97377.67
2022-07-29T18:00:43.991Z,97386.60
2022-07-29T18:03:12.455Z,97394.74
2022-07-29T18:05:41.627Z,97399.95
2022-07-29T18:08:09.981Z,97401.23
2022-07-29T18:10:38.276Z,97400.99
2022-07-29T18:13:06.352Z,97403.13
2022-07-29T18:15:34.467Z,97404.48
2022-07-29T18:18:02.442Z,97398.70
2022-07-29T18:20:31.264Z,97395.85
2022-07-29T18:22:59.536Z,97397.58
2022-07-29T18:25:29.016Z,97402.21
2022-07-29T18:28:00.479Z,97398.58
2022-07-29T18:30:30.916Z,97394.32
2022-07-29T18:33:20.146Z,97390.84
2022-07-29T18:35:49.509Z,97393.59
2022-07-29T18:38:17.790Z,97397.80
2022-07-29T18:40:46.350Z,97399.20
2022-07-29T18:43:14.474Z,97401.75
2022-07-29T18:45:42.723Z,97400.46
2022-07-29T18:48:15.386Z,97401.29
2022-07-29T18:50:43.786Z,97398.50
2022-07-29T18:53:11.900Z,97389.66
2022-07-29T18:55:40.188Z,97388.63
2022-07-29T18:58:08.367Z,97392.05
2022-07-29T19:00:36.521Z,97394.39
2022-07-29T19:03:04.956Z,97396.89
2022-07-29T19:05:33.584Z,97399.64
2022-07-29T19:08:01.689Z,97395.44
2022-07-29T19:10:30.754Z,97391.73
2022-07-29T19:12:58.883Z,97393.29
2022-07-29T19:15:27.105Z,97390.35
2022-07-29T19:18:00.554Z,97391.73
2022-07-29T19:20:29.546Z,97394.86
2022-07-29T19:22:57.648Z,97396.94
2022-07-29T19:25:25.954Z,97398.77
2022-07-29T19:27:54.326Z,97400.92
2022-07-29T19:30:22.445Z,97406.83
2022-07-29T19:32:50.629Z,97414.02
2022-07-29T19:35:25.516Z,97425.05
2022-07-29T19:37:55.580Z,97428.86
2022-07-29T19:40:23.900Z,97430.36
2022-07-29T19:42:53.153Z,97434.02
2022-07-29T19:45:22.859Z,97427.62
2022-07-29T19:47:51.432Z,97432.27
2022-07-29T19:50:19.626Z,97426.89
2022-07-29T19:52:47.756Z,97418.46
2022-07-29T19:55:16.166Z,97413.92
2022-07-29T19:57:47.016Z,97412.73
2022-07-29T20:00:17.112Z,97409.28
2022-07-29T20:02:49.501Z,97407.40
2022-07-29T20:05:18.144Z,97410.69
2022-07-29T20:07:47.858Z,97405.58
2022-07-29T20:10:16.846Z,97408.92
2022-07-29T20:12:44.825Z,97410.10
2022-07-29T20:15:16.501Z,97409.52
2022-07-29T20:17:46.434Z,97406.76
2022-07-29T20:20:14.493Z,97406.42
2022-07-29T20:22:43.083Z,97411.11
2022-07-29T20:25:12.005Z,97415.71
2022-07-29T20:27:40.925Z,97415.22
2022-07-29T20:30:09.148Z,97416.91
2022-07-29T20:32:40.703Z,97417.65
2022-07-29T20:35:12.038Z,97414.10
2022-07-29T20:37:55.863Z,97408.80
2022-07-29T20:40:29.100Z,97407.26
2022-07-29T20:42:57.309Z,97402.31
2022-07-29T20:45:25.713Z,97397.42
2022-07-29T20:47:54.173Z,97396.79
2022-07-29T20:50:23.826Z,97395.05
2022-07-29T20:52:52.890Z,97395.10
2022-07-29T20:55:21.569Z,97396.16
2022-07-29T20:57:49.603Z,97401.55
2022-07-29T21:00:17.676Z,97407.96
2022-07-29T21:02:48.788Z,97407.80
2022-07-29T21:05:17.133Z,97403.14
2022-07-29T21:07:45.306Z,97399.91
2022-07-29T21:10:14.428Z,97391.32
2022-07-29T21:12:42.697Z,97386.48
2022-07-29T21:15:13.594Z,97380.48
2022-07-29T21:17:48.753Z,97374.95
2022-07-29T21:20:18.496Z,97375.39
2022-07-29T21:22:46.640Z,97378.42
2022-07-29T21:25:14.789Z,97378.88
2022-07-29T21:28:01.321Z,97381.39
2022-07-29T21:30:29.303Z,97381.90
2022-07-29T21:32:57.460Z,97382.83
2022-07-29T21:36:01.569Z,97384.95
2022-07-29T21:38:16.462Z,97385.48
2022-07-29T21:40:46.578Z,97391.66
2022-07-29T21:43:15.658Z,97397.27
2022-07-29T21:45:44.382Z,97395.77
2022-07-29T21:48:14.231Z,97393.59
2022-07-29T21:50:42.345Z,97394.91
2022-07-29T21:53:11.111Z,97396.68
2022-07-29T21:55:42.245Z,97396.20
2022-07-29T21:58:11.857Z,97393.06
2022-07-29T22:00:41.438Z,97389.69
2022-07-29T22:03:10.032Z,97383.10
2022-07-29T22:05:38.079Z,97383.09
2022-07-29T22:08:07.380Z,97384.05
2022-07-29T22:10:35.805Z,97383.41
2022-07-29T22:13:04.142Z,97383.34
2022-07-29T22:15:32.577Z,97379.73
2022-07-29T22:18:00.601Z,97377.48
2022-07-29T22:20:28.704Z,97375.81
2022-07-29T22:22:56.729Z,97374.40
2022-07-29T22:25:24.955Z,97367.73
2022-07-29T22:27:52.869Z,97365.47
2022-07-29T22:30:20.855Z,97362.88
2022-07-29T22:32:49.766Z,97360.63
2022-07-29T22:35:18.789Z,97355.79
2022-07-29T22:37:46.838Z,97355.98
2022-07-29T22:40:15.138Z,97355.84
2022-07-29T22:42:43.415Z,97357.27
2022-07-29T22:45:11.698Z,97353.76
2022-07-29T22:47:47.931Z,97349.70
2022-07-29T22:50:17.667Z,97356.61
2022-07-29T22:52:47.024Z,97361.79
2022-07-29T22:55:17.338Z,97358.20
2022-07-29T22:57:45.454Z,97352.80
2022-07-29T23:00:14.307Z,97348.81
2022-07-29T23:02:42.308Z,97347.28
2022-07-29T23:05:10.815Z,97347.04
2022-07-29T23:07:38.882Z,97342.27
2022-07-29T23:10:07.877Z,97340.47
2022-07-29T23:12:35.987Z,97338.39
2022-07-29T23:15:05.851Z,97335.71
2022-07-29T23:17:36.324Z,97336.66
2022-07-29T23:20:07.943Z,97333.75
2022-07-29T23:22:36.324Z,97331.00
2022-07-29T23:25:06.355Z,97326.08
2022-07-29T23:27:34.443Z,97325.15
2022-07-29T23:30:03.711Z,97320.60
2022-07-29T23:32:32.021Z,97319.98
2022-07-29T23:35:00.583Z,97317.16
2022-07-29T23:37:28.582Z,97317.08
2022-07-29T23:39:56.934Z,97315.04
2022-07-29T23:42:24.941Z,97312.84
2022-07-29T23:44:53.071Z,97311.05
2022-07-29T23:47:21.246Z,97308.54
2022-07-29T23:49:50.301Z,97309.09
2022-07-29T23:52:19.676Z,97307.67
2022-07-29T23:54:47.846Z,97308.61
2022-07-29T23:57:16.213Z,97308.99
2022-07-29T23:59:44.238Z,97306.62
